• Join FlightAware (Why Join?)
  • Login
  • US Flag 
02:13AM EST


 

Airport Tracker/Info


-or-


 

Live Flight TrackerFlight Track Log ✈ RPA3161 ✈ 23-Apr-2013 ✈ KBTV - KDCA

Flight Track Log - Related Links

Times and Time Zones

All times are in EDT time to prevent confusion due to time zone crossing. See the RPA3161 flight status page for this flight to view local times or setup timezone preferences in your user account.

Time Position Orientation Groundspeed Altitude Reporting Facility
EDT Latitude Longitude Course Direction KTS MPH feet Rate Location/Type
12:21PM 44.1842 -73.2560 195° South  Level FlightAware Approximate
12:21PM 44.3592 -73.1283 195° South 222 255 6,000  Level Boston Center
12:22PM 44.0895 -73.2915 195° South  Level FlightAware Approximate
12:22PM 44.2928 -73.1189 174° South 241 277 8,900  Level Boston Center
12:23PM 43.9942 -73.3242 194° South  Level FlightAware Approximate
12:23PM 44.2136 -73.1033 172° South 272 313 11,400  Level Boston Center
12:24PM 43.8990 -73.3567 195° South  Level FlightAware Approximate
12:24PM 44.1283 -73.0908 174° South 302 348 13,800  Level Boston Center
12:25PM 43.8043 -73.3923 195° South  Level FlightAware Approximate
12:25PM 44.0367 -73.0783 174° South 324 373 16,300  Level Boston Center
12:26PM 43.7096 -73.4277 195° South  Level FlightAware Approximate
12:26PM 43.9472 -73.0631 173° South 330 380 18,000  Level Boston Center
12:27PM 43.8514 -73.0447 172° South 337 388 20,100 2,040 Climbing Boston Center
12:28PM 43.7536 -73.0264 172° South 347 399 22,100 1,740 Climbing Boston Center
12:29PM 43.6744 -73.0083 171° South 354 407 23,600 1,620 Climbing Boston Center
12:30PM 43.5703 -72.9903 173° South 354 407 25,400 2,280 Climbing Boston Center
12:31PM 43.4597 -73.0178 190° South 354 407 28,200 2,280 Climbing Boston Center
12:32PM 43.3825 -73.0428 193° South 349 402 30,000 900 Climbing Boston Center
12:33PM 43.2906 -73.0675 191° South 341 392 30,000 480 Level Boston Center
12:34PM 43.2008 -73.0922 191° South 335 386 31,000 1,440 Climbing Boston Center
12:35PM 43.1069 -73.1142 190° South 335 386 32,900 1,500 Climbing Boston Center
12:36PM 43.0236 -73.1386 192° South 324 373 34,000 540 Climbing Boston Center
12:37PM 42.9400 -73.1606 191° South 314 361 34,000  Level Boston Center
12:38PM 42.8461 -73.1847 191° South 314 361 34,000  Level Boston Center
12:39PM 42.7606 -73.2064 191° South 314 361 34,000  Level Boston Center
12:40PM 42.6747 -73.2308 192° South 314 361 34,000  Level Boston Center
12:41PM 42.5956 -73.2439 187° South 314 361 34,000  Level Boston Center
12:42PM 42.5100 -73.2625 189° South 314 361 34,000  Level Boston Center
12:43PM 42.4244 -73.2839 190° South 314 361 34,000  Level Boston Center
12:44PM 42.3072 -73.3244 194° South 326 375 34,000  Level Boston Center
12:45PM 42.2217 -73.3483 192° South 331 381 34,000  Level Boston Center
12:46PM 42.1425 -73.3642 188° South 326 375 34,000  Level Boston Center
12:47PM 42.0442 -73.3933 192° South 327 376 34,000  Level Boston Center
12:48PM 41.9586 -73.4144 190° South 332 382 34,000  Level Boston Center
12:49PM 41.8708 -73.4381 191° South 332 382 34,000  Level Boston Center
12:51PM 41.6656 -73.4869 190° South 316 364 34,000  Level New York Center
12:52PM 41.5942 -73.5117 195° South 311 358 34,000  Level New York Center
12:53PM 41.5139 -73.5611 205° Southwest 306 352 34,000  Level New York Center
12:54PM 41.4378 -73.6161 208° Southwest 316 364 34,000  Level New York Center
12:55PM 41.3572 -73.6678 206° Southwest 322 371 34,000  Level New York Center
12:56PM 41.2789 -73.7169 205° Southwest 322 371 34,000  Level New York Center
12:57PM 41.1986 -73.7686 206° Southwest 322 371 34,000  Level New York Center
12:58PM 41.1300 -73.8369 217° Southwest 327 376 34,000  Level New York Center
12:59PM 41.0733 -73.9336 232° Southwest 320 368 34,000 -480 Level New York Center
01:00PM 41.0167 -74.0328 233° Southwest 334 384 33,100 -1,320 Descending New York Center
01:01PM 40.9553 -74.1342 231° Southwest 349 402 31,400 -1,740 Descending New York Center
01:02PM 40.8900 -74.2353 230° Southwest 360 414 29,600 -1,740 Descending New York Center
01:03PM 40.8286 -74.3389 232° Southwest 365 420 28,000 -840 Descending New York Center
01:04PM 40.7650 -74.4425 231° Southwest 365 420 28,000 -420 Level New York Center
01:05PM 40.7033 -74.5431 231° Southwest 365 420 27,200 -1,380 Descending New York Center
01:06PM 40.6378 -74.6381 228° Southwest 360 414 25,300 -1,860 Descending New York Center
01:07PM 40.5700 -74.7353 227° Southwest 355 409 23,500 -1,680 Descending New York Center
01:08PM 40.5083 -74.8300 229° Southwest 355 409 22,000 -780 Descending New York Center
01:09PM 40.4447 -74.9217 228° Southwest 349 402 22,000  Level New York Center
01:10PM 40.3808 -75.0186 229° Southwest 349 402 22,000  Level New York Center
01:11PM 40.3150 -75.1125 227° Southwest 349 402 22,000  Level New York Center
01:12PM 40.2511 -75.2064 228° Southwest 349 402 22,000  Level New York Center
01:13PM 40.1783 -75.3133 228° Southwest 349 402 22,000  Level New York Center
01:14PM 40.1142 -75.4067 228° Southwest 349 402 22,000  Level New York Center
01:15PM 40.0481 -75.4944 225° Southwest 349 402 22,000 -60 Level New York Center
01:16PM 39.9817 -75.5875 227° Southwest 349 402 21,900 -660 Descending New York Center
01:17PM 39.9156 -75.6806 227° Southwest 349 402 20,800 -1,080 Descending New York Center
01:18PM 39.8631 -75.7878 237° Southwest 354 407 19,800 -960 Descending New York Center
01:19PM 39.8089 -75.8783 232° Southwest 354 407 18,900 -960 Descending New York Center
01:20PM 39.7567 -75.9800 236° Southwest 349 402 17,900 -960 Descending New York Center
01:21PM 39.6997 -76.0892 236° Southwest 337 388 17,000 -1,080 Descending New York Center
01:22PM 39.6472 -76.1875 235° Southwest 337 388 15,800 -1,320 Descending New York Center
01:23PM 39.6167 -76.2333 229° Southwest 330 380 15,100 -1,320 Descending Potomac TRACON
01:24PM 39.5500 -76.3333 229° Southwest 329 379 13,900 -1,200 Descending Potomac TRACON
01:25PM 39.4833 -76.4000 218° Southwest 325 374 12,700 -1,020 Descending Potomac TRACON
01:26PM 39.4167 -76.4500 210° Southwest 299 344 12,000 -420 Descending Potomac TRACON
01:27PM 39.3500 -76.5000 210° Southwest 302 348 12,000  Level Potomac TRACON
01:28PM 39.2667 -76.5833 218° Southwest 302 348 12,000 -720 Level Potomac TRACON
01:29PM 39.2000 -76.6333 210° Southwest 296 341 10,500 -1,080 Descending Potomac TRACON
01:30PM 39.1500 -76.7000 226° Southwest 287 330 10,000 -360 Descending Potomac TRACON
01:31PM 39.0833 -76.7667 218° Southwest 289 333 9,900 -960 Descending Potomac TRACON
01:32PM 39.0333 -76.8333 226° Southwest 281 323 8,100 -1,800 Descending Potomac TRACON
01:33PM 38.9667 -76.9000 218° Southwest 277 319 6,300 -1,080 Descending Potomac TRACON
01:34PM 38.9000 -76.9500 210° Southwest 275 316 6,000 -180 Descending Potomac TRACON
01:35PM 38.8333 -76.9500 180° South 242 278 6,000 -180 Level Potomac TRACON
01:36PM 38.7833 -76.9500 180° South 202 232 5,700 -780 Descending Potomac TRACON
01:36PM 38.7333 -76.9333 165° South 192 221 4,600 -1,200 Descending Potomac TRACON
01:37PM 38.6833 -76.9500 195° South 188 216 3,500 -1,200 Descending Potomac TRACON
01:39PM 38.7000 -77.0167 288° West 172 198 2,200 -780 Descending Potomac TRACON
01:40PM 38.7500 -77.0333 345° North 169 194 2,000 -540 Descending Potomac TRACON
01:41PM 38.7833 -77.0333 360° North 151 174 1,200 -840 Descending Potomac TRACON
01:41PM 38.8167 -77.0333 360° North 119 137 500 -780 Descending Potomac TRACON